sensor_id;sensor_type;location;lat;lon;timestamp;P1;durP1;ratioP1;P2;durP2;ratioP2
14015;SDS011;7083;48.854;9.158;2023-03-14T00:01:26;1999.90;;;999.90;;
14015;SDS011;7083;48.854;9.158;2023-03-14T00:03:52;1999.90;;;999.90;;
14015;SDS011;7083;48.854;9.158;2023-03-14T00:06:19;1999.90;;;999.90;;
14015;SDS011;7083;48.854;9.158;2023-03-14T00:08:46;1999.90;;;999.90;;
14015;SDS011;7083;48.854;9.158;2023-03-14T00:11:15;1999.90;;;999.90;;
14015;SDS011;7083;48.854;9.158;2023-03-14T00:13:44;1999.90;;;999.90;;
14015;SDS011;7083;48.854;9.158;2023-03-14T00:16:12;1999.90;;;999.90;;
14015;SDS011;7083;48.854;9.158;2023-03-14T00:18:39;1999.90;;;999.90;;
14015;SDS011;7083;48.854;9.158;2023-03-14T00:21:07;1999.90;;;999.90;;
14015;SDS011;7083;48.854;9.158;2023-03-14T00:23:36;1999.90;;;999.90;;
14015;SDS011;7083;48.854;9.158;2023-03-14T00:26:04;1999.90;;;999.90;;
14015;SDS011;7083;48.854;9.158;2023-03-14T00:28:32;1999.90;;;999.90;;
14015;SDS011;7083;48.854;9.158;2023-03-14T00:31:03;1999.90;;;999.90;;
14015;SDS011;7083;48.854;9.158;2023-03-14T00:33:30;1999.90;;;999.90;;
14015;SDS011;7083;48.854;9.158;2023-03-14T00:35:57;1999.90;;;999.90;;
14015;SDS011;7083;48.854;9.158;2023-03-14T00:38:25;1999.90;;;999.90;;
14015;SDS011;7083;48.854;9.158;2023-03-14T00:40:53;1999.90;;;999.90;;
14015;SDS011;7083;48.854;9.158;2023-03-14T00:43:20;1999.90;;;999.90;;
14015;SDS011;7083;48.854;9.158;2023-03-14T00:45:47;1999.90;;;999.90;;
14015;SDS011;7083;48.854;9.158;2023-03-14T00:48:17;1999.90;;;999.90;;
14015;SDS011;7083;48.854;9.158;2023-03-14T00:50:44;1999.90;;;999.90;;
14015;SDS011;7083;48.854;9.158;2023-03-14T00:53:11;1999.90;;;999.90;;
14015;SDS011;7083;48.854;9.158;2023-03-14T00:55:39;1999.90;;;999.90;;
14015;SDS011;7083;48.854;9.158;2023-03-14T00:58:08;1999.90;;;999.90;;
14015;SDS011;7083;48.854;9.158;2023-03-14T01:00:35;1999.90;;;999.90;;
14015;SDS011;7083;48.854;9.158;2023-03-14T01:03:02;1999.90;;;999.90;;
14015;SDS011;7083;48.854;9.158;2023-03-14T01:05:31;1999.90;;;999.90;;
14015;SDS011;7083;48.854;9.158;2023-03-14T01:07:58;1999.90;;;999.90;;
14015;SDS011;7083;48.854;9.158;2023-03-14T01:10:25;1999.90;;;999.90;;
14015;SDS011;7083;48.854;9.158;2023-03-14T01:12:52;1999.90;;;999.90;;
14015;SDS011;7083;48.854;9.158;2023-03-14T01:15:18;1999.90;;;999.90;;
14015;SDS011;7083;48.854;9.158;2023-03-14T01:17:46;1999.90;;;999.90;;
14015;SDS011;7083;48.854;9.158;2023-03-14T01:20:13;1999.90;;;999.90;;
14015;SDS011;7083;48.854;9.158;2023-03-14T01:22:42;1999.90;;;999.90;;
14015;SDS011;7083;48.854;9.158;2023-03-14T01:25:11;1999.90;;;999.90;;
14015;SDS011;7083;48.854;9.158;2023-03-14T01:27:39;1999.90;;;999.90;;
14015;SDS011;7083;48.854;9.158;2023-03-14T01:30:07;1999.90;;;999.90;;
14015;SDS011;7083;48.854;9.158;2023-03-14T01:32:35;1999.90;;;999.90;;
14015;SDS011;7083;48.854;9.158;2023-03-14T01:35:02;1999.90;;;999.90;;
14015;SDS011;7083;48.854;9.158;2023-03-14T01:37:29;1999.90;;;999.90;;
14015;SDS011;7083;48.854;9.158;2023-03-14T01:39:57;1999.90;;;999.90;;
14015;SDS011;7083;48.854;9.158;2023-03-14T01:42:24;1999.90;;;999.90;;
14015;SDS011;7083;48.854;9.158;2023-03-14T01:44:51;1999.90;;;999.90;;
14015;SDS011;7083;48.854;9.158;2023-03-14T01:47:20;1999.90;;;999.90;;
14015;SDS011;7083;48.854;9.158;2023-03-14T01:49:48;1999.90;;;999.90;;
14015;SDS011;7083;48.854;9.158;2023-03-14T01:52:20;1999.90;;;999.90;;
14015;SDS011;7083;48.854;9.158;2023-03-14T01:54:49;1999.90;;;999.90;;
14015;SDS011;7083;48.854;9.158;2023-03-14T01:57:22;1999.90;;;999.90;;
14015;SDS011;7083;48.854;9.158;2023-03-14T01:59:53;1999.90;;;999.90;;
14015;SDS011;7083;48.854;9.158;2023-03-14T02:02:22;1999.90;;;999.90;;
14015;SDS011;7083;48.854;9.158;2023-03-14T02:04:52;1999.90;;;999.90;;
14015;SDS011;7083;48.854;9.158;2023-03-14T02:07:21;1999.90;;;999.90;;
14015;SDS011;7083;48.854;9.158;2023-03-14T02:09:51;1999.90;;;999.90;;
14015;SDS011;7083;48.854;9.158;2023-03-14T02:12:21;1999.90;;;999.90;;
14015;SDS011;7083;48.854;9.158;2023-03-14T02:14:48;1999.90;;;999.90;;
14015;SDS011;7083;48.854;9.158;2023-03-14T02:17:16;1999.90;;;999.90;;
14015;SDS011;7083;48.854;9.158;2023-03-14T02:19:57;1999.90;;;999.90;;
14015;SDS011;7083;48.854;9.158;2023-03-14T02:22:40;1999.90;;;999.90;;
14015;SDS011;7083;48.854;9.158;2023-03-14T02:25:11;1999.90;;;999.90;;
14015;SDS011;7083;48.854;9.158;2023-03-14T02:27:43;1999.90;;;999.90;;
14015;SDS011;7083;48.854;9.158;2023-03-14T02:30:11;1999.90;;;999.90;;
14015;SDS011;7083;48.854;9.158;2023-03-14T02:32:41;1999.90;;;999.90;;
14015;SDS011;7083;48.854;9.158;2023-03-14T02:35:11;1999.90;;;999.90;;
14015;SDS011;7083;48.854;9.158;2023-03-14T02:37:41;1999.90;;;999.90;;
14015;SDS011;7083;48.854;9.158;2023-03-14T02:40:12;1999.90;;;999.90;;
14015;SDS011;7083;48.854;9.158;2023-03-14T02:42:38;1999.90;;;999.90;;
14015;SDS011;7083;48.854;9.158;2023-03-14T02:48:07;1999.90;;;999.90;;
14015;SDS011;7083;48.854;9.158;2023-03-14T02:50:38;1999.90;;;999.90;;
14015;SDS011;7083;48.854;9.158;2023-03-14T02:53:05;1999.90;;;999.90;;
14015;SDS011;7083;48.854;9.158;2023-03-14T02:55:32;1999.90;;;999.90;;
14015;SDS011;7083;48.854;9.158;2023-03-14T02:57:59;1999.90;;;999.90;;
14015;SDS011;7083;48.854;9.158;2023-03-14T03:00:26;1999.90;;;999.90;;
14015;SDS011;7083;48.854;9.158;2023-03-14T03:02:53;1999.90;;;999.90;;
14015;SDS011;7083;48.854;9.158;2023-03-14T03:05:21;1999.90;;;999.90;;
14015;SDS011;7083;48.854;9.158;2023-03-14T03:07:47;1999.90;;;999.90;;
14015;SDS011;7083;48.854;9.158;2023-03-14T03:10:14;1999.90;;;999.90;;
14015;SDS011;7083;48.854;9.158;2023-03-14T03:12:41;1999.90;;;999.90;;
14015;SDS011;7083;48.854;9.158;2023-03-14T03:15:11;1999.90;;;999.90;;
14015;SDS011;7083;48.854;9.158;2023-03-14T03:17:37;1999.90;;;999.90;;
14015;SDS011;7083;48.854;9.158;2023-03-14T03:20:04;1999.90;;;999.90;;
14015;SDS011;7083;48.854;9.158;2023-03-14T03:22:35;1999.90;;;999.90;;
14015;SDS011;7083;48.854;9.158;2023-03-14T03:25:02;1999.90;;;999.90;;
14015;SDS011;7083;48.854;9.158;2023-03-14T03:27:29;1999.90;;;999.90;;
14015;SDS011;7083;48.854;9.158;2023-03-14T03:29:57;1999.90;;;999.90;;
14015;SDS011;7083;48.854;9.158;2023-03-14T03:32:23;1999.90;;;999.90;;
14015;SDS011;7083;48.854;9.158;2023-03-14T03:34:51;1999.90;;;999.90;;
14015;SDS011;7083;48.854;9.158;2023-03-14T03:37:18;1999.90;;;999.90;;
14015;SDS011;7083;48.854;9.158;2023-03-14T03:39:46;1999.90;;;999.90;;
14015;SDS011;7083;48.854;9.158;2023-03-14T03:42:12;1999.90;;;999.90;;
14015;SDS011;7083;48.854;9.158;2023-03-14T03:44:39;1999.90;;;999.90;;
14015;SDS011;7083;48.854;9.158;2023-03-14T03:47:06;1999.90;;;999.90;;
14015;SDS011;7083;48.854;9.158;2023-03-14T03:49:32;1999.90;;;999.90;;
14015;SDS011;7083;48.854;9.158;2023-03-14T03:51:59;1999.90;;;999.90;;
14015;SDS011;7083;48.854;9.158;2023-03-14T03:54:26;1999.90;;;999.90;;
14015;SDS011;7083;48.854;9.158;2023-03-14T03:56:55;1999.90;;;999.90;;
14015;SDS011;7083;48.854;9.158;2023-03-14T03:59:21;1999.90;;;999.90;;
14015;SDS011;7083;48.854;9.158;2023-03-14T04:01:48;1999.90;;;999.90;;
14015;SDS011;7083;48.854;9.158;2023-03-14T04:04:15;1999.90;;;999.90;;
14015;SDS011;7083;48.854;9.158;2023-03-14T04:06:41;1999.90;;;999.90;;
14015;SDS011;7083;48.854;9.158;2023-03-14T04:09:08;1999.90;;;999.90;;
14015;SDS011;7083;48.854;9.158;2023-03-14T04:11:35;1999.90;;;999.90;;
14015;SDS011;7083;48.854;9.158;2023-03-14T04:14:03;1999.90;;;999.90;;
14015;SDS011;7083;48.854;9.158;2023-03-14T04:16:30;1999.90;;;999.90;;
14015;SDS011;7083;48.854;9.158;2023-03-14T04:18:57;1999.90;;;999.90;;
14015;SDS011;7083;48.854;9.158;2023-03-14T04:21:24;1999.90;;;999.90;;
14015;SDS011;7083;48.854;9.158;2023-03-14T04:23:51;1999.90;;;999.90;;
14015;SDS011;7083;48.854;9.158;2023-03-14T04:26:18;1999.90;;;999.90;;
14015;SDS011;7083;48.854;9.158;2023-03-14T04:28:46;1999.90;;;999.90;;
14015;SDS011;7083;48.854;9.158;2023-03-14T04:31:14;1999.90;;;999.90;;
14015;SDS011;7083;48.854;9.158;2023-03-14T04:33:43;1999.90;;;999.90;;
14015;SDS011;7083;48.854;9.158;2023-03-14T04:36:10;1999.90;;;999.90;;
14015;SDS011;7083;48.854;9.158;2023-03-14T04:38:37;1999.90;;;999.90;;
14015;SDS011;7083;48.854;9.158;2023-03-14T04:41:04;1999.90;;;999.90;;
14015;SDS011;7083;48.854;9.158;2023-03-14T04:43:31;1999.90;;;999.90;;
14015;SDS011;7083;48.854;9.158;2023-03-14T04:45:58;1999.90;;;999.90;;
14015;SDS011;7083;48.854;9.158;2023-03-14T04:48:27;1999.90;;;999.90;;
14015;SDS011;7083;48.854;9.158;2023-03-14T04:50:54;1999.90;;;999.90;;
14015;SDS011;7083;48.854;9.158;2023-03-14T04:53:21;1999.90;;;999.90;;
14015;SDS011;7083;48.854;9.158;2023-03-14T04:55:48;1999.90;;;999.90;;
14015;SDS011;7083;48.854;9.158;2023-03-14T04:58:15;1999.90;;;999.90;;
14015;SDS011;7083;48.854;9.158;2023-03-14T05:00:42;1999.90;;;999.90;;
14015;SDS011;7083;48.854;9.158;2023-03-14T05:03:08;1999.90;;;999.90;;
14015;SDS011;7083;48.854;9.158;2023-03-14T05:05:37;1999.90;;;999.90;;
14015;SDS011;7083;48.854;9.158;2023-03-14T05:08:03;1999.90;;;999.90;;
14015;SDS011;7083;48.854;9.158;2023-03-14T05:10:30;1999.90;;;999.90;;
14015;SDS011;7083;48.854;9.158;2023-03-14T05:12:57;1999.90;;;999.90;;
14015;SDS011;7083;48.854;9.158;2023-03-14T05:15:23;1999.90;;;999.90;;
14015;SDS011;7083;48.854;9.158;2023-03-14T05:17:50;1999.90;;;999.90;;
14015;SDS011;7083;48.854;9.158;2023-03-14T05:20:19;1999.90;;;999.90;;
14015;SDS011;7083;48.854;9.158;2023-03-14T05:22:47;1999.90;;;999.90;;
14015;SDS011;7083;48.854;9.158;2023-03-14T05:25:13;1999.90;;;999.90;;
14015;SDS011;7083;48.854;9.158;2023-03-14T05:27:40;1999.90;;;999.90;;
14015;SDS011;7083;48.854;9.158;2023-03-14T05:30:08;1999.90;;;999.90;;
14015;SDS011;7083;48.854;9.158;2023-03-14T05:32:35;1999.90;;;999.90;;
14015;SDS011;7083;48.854;9.158;2023-03-14T05:35:02;1999.90;;;999.90;;
14015;SDS011;7083;48.854;9.158;2023-03-14T05:39:58;1999.90;;;999.90;;
14015;SDS011;7083;48.854;9.158;2023-03-14T05:42:25;1999.90;;;999.90;;
14015;SDS011;7083;48.854;9.158;2023-03-14T05:44:52;1999.90;;;999.90;;
14015;SDS011;7083;48.854;9.158;2023-03-14T05:47:18;1999.90;;;999.90;;
14015;SDS011;7083;48.854;9.158;2023-03-14T05:49:45;1999.90;;;999.90;;
14015;SDS011;7083;48.854;9.158;2023-03-14T05:52:12;1999.90;;;999.90;;
14015;SDS011;7083;48.854;9.158;2023-03-14T05:54:38;1999.90;;;999.90;;
14015;SDS011;7083;48.854;9.158;2023-03-14T05:57:07;1999.90;;;999.90;;
14015;SDS011;7083;48.854;9.158;2023-03-14T05:59:33;1999.90;;;999.90;;
14015;SDS011;7083;48.854;9.158;2023-03-14T06:02:00;1999.90;;;999.90;;
14015;SDS011;7083;48.854;9.158;2023-03-14T06:04:27;1999.90;;;999.90;;
14015;SDS011;7083;48.854;9.158;2023-03-14T06:06:53;1999.90;;;999.90;;
14015;SDS011;7083;48.854;9.158;2023-03-14T06:09:20;1999.90;;;999.90;;
14015;SDS011;7083;48.854;9.158;2023-03-14T06:11:48;1999.90;;;999.90;;
14015;SDS011;7083;48.854;9.158;2023-03-14T06:14:16;1999.90;;;999.90;;
14015;SDS011;7083;48.854;9.158;2023-03-14T06:16:43;1999.90;;;999.90;;
14015;SDS011;7083;48.854;9.158;2023-03-14T06:19:10;1999.90;;;999.90;;
14015;SDS011;7083;48.854;9.158;2023-03-14T06:21:37;1999.90;;;999.90;;
14015;SDS011;7083;48.854;9.158;2023-03-14T06:24:04;1999.90;;;999.90;;
14015;SDS011;7083;48.854;9.158;2023-03-14T06:26:31;1999.90;;;999.90;;
14015;SDS011;7083;48.854;9.158;2023-03-14T06:28:58;1999.90;;;999.90;;
14015;SDS011;7083;48.854;9.158;2023-03-14T06:31:29;1999.90;;;999.90;;
14015;SDS011;7083;48.854;9.158;2023-03-14T06:33:56;1999.90;;;999.90;;
14015;SDS011;7083;48.854;9.158;2023-03-14T06:36:23;1999.90;;;999.90;;
14015;SDS011;7083;48.854;9.158;2023-03-14T06:38:50;1999.90;;;999.90;;
14015;SDS011;7083;48.854;9.158;2023-03-14T06:41:17;1999.90;;;999.90;;
14015;SDS011;7083;48.854;9.158;2023-03-14T06:43:44;1999.90;;;999.90;;
14015;SDS011;7083;48.854;9.158;2023-03-14T06:46:11;1999.90;;;999.90;;
14015;SDS011;7083;48.854;9.158;2023-03-14T06:48:41;1999.90;;;999.90;;
14015;SDS011;7083;48.854;9.158;2023-03-14T06:51:08;1999.90;;;999.90;;
14015;SDS011;7083;48.854;9.158;2023-03-14T06:53:35;1999.90;;;999.90;;
14015;SDS011;7083;48.854;9.158;2023-03-14T06:56:03;1999.90;;;999.90;;
14015;SDS011;7083;48.854;9.158;2023-03-14T06:58:30;1999.90;;;999.90;;
14015;SDS011;7083;48.854;9.158;2023-03-14T07:00:57;1999.90;;;999.90;;
14015;SDS011;7083;48.854;9.158;2023-03-14T07:03:24;1999.90;;;999.90;;
14015;SDS011;7083;48.854;9.158;2023-03-14T07:05:52;1999.90;;;999.90;;
14015;SDS011;7083;48.854;9.158;2023-03-14T07:08:19;1999.90;;;999.90;;
14015;SDS011;7083;48.854;9.158;2023-03-14T07:10:46;1999.90;;;999.90;;
14015;SDS011;7083;48.854;9.158;2023-03-14T07:13:13;1999.90;;;999.90;;
14015;SDS011;7083;48.854;9.158;2023-03-14T07:15:40;1999.90;;;999.90;;
14015;SDS011;7083;48.854;9.158;2023-03-14T07:18:07;1999.90;;;999.90;;
14015;SDS011;7083;48.854;9.158;2023-03-14T07:20:34;1999.90;;;999.90;;
14015;SDS011;7083;48.854;9.158;2023-03-14T07:23:03;1999.90;;;999.90;;
14015;SDS011;7083;48.854;9.158;2023-03-14T07:25:30;1999.90;;;999.90;;
14015;SDS011;7083;48.854;9.158;2023-03-14T07:27:57;1999.90;;;999.90;;
14015;SDS011;7083;48.854;9.158;2023-03-14T07:30:24;1999.90;;;999.90;;
14015;SDS011;7083;48.854;9.158;2023-03-14T07:32:51;1999.90;;;999.90;;
14015;SDS011;7083;48.854;9.158;2023-03-14T07:35:18;1999.90;;;999.90;;
14015;SDS011;7083;48.854;9.158;2023-03-14T07:37:45;1999.90;;;999.90;;
14015;SDS011;7083;48.854;9.158;2023-03-14T07:40:13;1999.90;;;999.90;;
14015;SDS011;7083;48.854;9.158;2023-03-14T07:42:41;1999.90;;;999.90;;
14015;SDS011;7083;48.854;9.158;2023-03-14T07:45:08;1999.90;;;999.90;;
14015;SDS011;7083;48.854;9.158;2023-03-14T07:47:35;1999.90;;;999.90;;
14015;SDS011;7083;48.854;9.158;2023-03-14T07:50:03;1999.90;;;999.90;;
14015;SDS011;7083;48.854;9.158;2023-03-14T07:52:30;1999.90;;;999.90;;
14015;SDS011;7083;48.854;9.158;2023-03-14T07:54:57;1999.90;;;999.90;;
14015;SDS011;7083;48.854;9.158;2023-03-14T07:57:25;1999.90;;;999.90;;
14015;SDS011;7083;48.854;9.158;2023-03-14T07:59:52;1999.90;;;999.90;;
14015;SDS011;7083;48.854;9.158;2023-03-14T08:02:19;1999.90;;;999.90;;
14015;SDS011;7083;48.854;9.158;2023-03-14T08:04:48;1999.90;;;999.90;;
14015;SDS011;7083;48.854;9.158;2023-03-14T08:07:16;1999.90;;;999.90;;
14015;SDS011;7083;48.854;9.158;2023-03-14T08:09:43;1999.90;;;999.90;;
14015;SDS011;7083;48.854;9.158;2023-03-14T08:12:10;1999.90;;;999.90;;
14015;SDS011;7083;48.854;9.158;2023-03-14T08:14:39;1999.90;;;999.90;;
14015;SDS011;7083;48.854;9.158;2023-03-14T08:17:06;1999.90;;;999.90;;
14015;SDS011;7083;48.854;9.158;2023-03-14T08:19:34;1999.90;;;999.90;;
14015;SDS011;7083;48.854;9.158;2023-03-14T08:22:01;1999.90;;;999.90;;
14015;SDS011;7083;48.854;9.158;2023-03-14T08:24:28;1999.90;;;999.90;;
14015;SDS011;7083;48.854;9.158;2023-03-14T08:26:55;1999.90;;;999.90;;
14015;SDS011;7083;48.854;9.158;2023-03-14T08:29:22;1999.90;;;999.90;;
14015;SDS011;7083;48.854;9.158;2023-03-14T08:31:50;1999.90;;;999.90;;
14015;SDS011;7083;48.854;9.158;2023-03-14T08:34:18;1999.90;;;999.90;;
14015;SDS011;7083;48.854;9.158;2023-03-14T08:36:45;1999.90;;;999.90;;
14015;SDS011;7083;48.854;9.158;2023-03-14T08:39:12;1999.90;;;999.90;;
14015;SDS011;7083;48.854;9.158;2023-03-14T08:41:39;1999.90;;;999.90;;
14015;SDS011;7083;48.854;9.158;2023-03-14T08:44:07;1999.90;;;999.90;;
14015;SDS011;7083;48.854;9.158;2023-03-14T08:46:35;1999.90;;;999.90;;
14015;SDS011;7083;48.854;9.158;2023-03-14T08:49:03;618.43;;;585.33;;
14015;SDS011;7083;48.854;9.158;2023-03-14T08:51:30;283.60;;;270.47;;
14015;SDS011;7083;48.854;9.158;2023-03-14T08:53:57;594.27;;;564.17;;
14015;SDS011;7083;48.854;9.158;2023-03-14T08:56:24;574.77;;;546.23;;
14015;SDS011;7083;48.854;9.158;2023-03-14T08:58:51;1999.90;;;999.90;;
14015;SDS011;7083;48.854;9.158;2023-03-14T09:01:18;285.40;;;273.20;;
14015;SDS011;7083;48.854;9.158;2023-03-14T09:03:49;480.13;;;455.97;;
14015;SDS011;7083;48.854;9.158;2023-03-14T09:06:17;527.17;;;500.70;;
14015;SDS011;7083;48.854;9.158;2023-03-14T09:08:44;635.57;;;600.70;;
14015;SDS011;7083;48.854;9.158;2023-03-14T09:11:11;495.40;;;472.00;;
14015;SDS011;7083;48.854;9.158;2023-03-14T09:13:38;525.50;;;498.60;;
14015;SDS011;7083;48.854;9.158;2023-03-14T09:16:06;935.20;;;586.17;;
14015;SDS011;7083;48.854;9.158;2023-03-14T09:18:33;1999.90;;;999.90;;
14015;SDS011;7083;48.854;9.158;2023-03-14T09:21:00;1999.90;;;999.90;;
14015;SDS011;7083;48.854;9.158;2023-03-14T09:23:28;1999.90;;;999.90;;
14015;SDS011;7083;48.854;9.158;2023-03-14T09:25:55;1999.90;;;999.90;;
14015;SDS011;7083;48.854;9.158;2023-03-14T09:28:21;1999.90;;;999.90;;
14015;SDS011;7083;48.854;9.158;2023-03-14T09:30:48;1999.90;;;999.90;;
14015;SDS011;7083;48.854;9.158;2023-03-14T09:33:15;1999.90;;;999.90;;
14015;SDS011;7083;48.854;9.158;2023-03-14T09:35:42;1999.90;;;999.90;;
14015;SDS011;7083;48.854;9.158;2023-03-14T09:38:08;1999.90;;;999.90;;
14015;SDS011;7083;48.854;9.158;2023-03-14T09:40:37;1999.90;;;999.90;;
14015;SDS011;7083;48.854;9.158;2023-03-14T09:43:04;1999.90;;;999.90;;
14015;SDS011;7083;48.854;9.158;2023-03-14T09:45:32;1999.90;;;999.90;;
14015;SDS011;7083;48.854;9.158;2023-03-14T09:48:02;1999.90;;;999.90;;
14015;SDS011;7083;48.854;9.158;2023-03-14T09:50:31;1999.90;;;999.90;;
14015;SDS011;7083;48.854;9.158;2023-03-14T09:53:03;1999.90;;;999.90;;
14015;SDS011;7083;48.854;9.158;2023-03-14T09:55:32;1999.90;;;999.90;;
14015;SDS011;7083;48.854;9.158;2023-03-14T09:58:02;1999.90;;;999.90;;
14015;SDS011;7083;48.854;9.158;2023-03-14T10:00:35;1383.93;;;713.53;;
14015;SDS011;7083;48.854;9.158;2023-03-14T10:03:09;1999.90;;;999.90;;
14015;SDS011;7083;48.854;9.158;2023-03-14T10:05:47;1999.90;;;999.90;;
14015;SDS011;7083;48.854;9.158;2023-03-14T10:08:14;1999.90;;;999.90;;
14015;SDS011;7083;48.854;9.158;2023-03-14T10:10:40;1999.90;;;999.90;;
14015;SDS011;7083;48.854;9.158;2023-03-14T10:13:12;1999.90;;;999.90;;
14015;SDS011;7083;48.854;9.158;2023-03-14T10:15:42;1999.90;;;999.90;;
14015;SDS011;7083;48.854;9.158;2023-03-14T10:18:14;1999.90;;;999.90;;
14015;SDS011;7083;48.854;9.158;2023-03-14T10:20:42;1999.90;;;999.90;;
14015;SDS011;7083;48.854;9.158;2023-03-14T10:23:18;1999.90;;;999.90;;
14015;SDS011;7083;48.854;9.158;2023-03-14T10:25:58;1999.90;;;999.90;;
14015;SDS011;7083;48.854;9.158;2023-03-14T10:28:27;1999.90;;;999.90;;
14015;SDS011;7083;48.854;9.158;2023-03-14T10:30:55;1999.90;;;999.90;;
14015;SDS011;7083;48.854;9.158;2023-03-14T10:33:23;1999.90;;;999.90;;
14015;SDS011;7083;48.854;9.158;2023-03-14T10:35:54;1999.90;;;999.90;;
14015;SDS011;7083;48.854;9.158;2023-03-14T10:38:22;1999.90;;;999.90;;
14015;SDS011;7083;48.854;9.158;2023-03-14T10:40:52;1999.90;;;999.90;;
14015;SDS011;7083;48.854;9.158;2023-03-14T10:43:22;1999.90;;;999.90;;
14015;SDS011;7083;48.854;9.158;2023-03-14T10:45:53;1999.90;;;999.90;;
14015;SDS011;7083;48.854;9.158;2023-03-14T10:48:23;1999.90;;;999.90;;
14015;SDS011;7083;48.854;9.158;2023-03-14T10:50:56;1999.90;;;999.90;;
14015;SDS011;7083;48.854;9.158;2023-03-14T10:53:29;1999.90;;;999.90;;
14015;SDS011;7083;48.854;9.158;2023-03-14T10:55:59;1999.90;;;999.90;;
14015;SDS011;7083;48.854;9.158;2023-03-14T10:58:30;1999.90;;;999.90;;
14015;SDS011;7083;48.854;9.158;2023-03-14T11:01:05;1999.90;;;999.90;;
14015;SDS011;7083;48.854;9.158;2023-03-14T11:03:48;1999.90;;;999.90;;
14015;SDS011;7083;48.854;9.158;2023-03-14T11:06:20;1999.90;;;999.90;;
14015;SDS011;7083;48.854;9.158;2023-03-14T11:08:52;1999.90;;;999.90;;
14015;SDS011;7083;48.854;9.158;2023-03-14T11:11:23;1999.90;;;999.90;;
14015;SDS011;7083;48.854;9.158;2023-03-14T11:13:55;1999.90;;;999.90;;
14015;SDS011;7083;48.854;9.158;2023-03-14T11:16:37;1999.90;;;999.90;;
14015;SDS011;7083;48.854;9.158;2023-03-14T11:19:19;1999.90;;;999.90;;
14015;SDS011;7083;48.854;9.158;2023-03-14T11:21:54;1999.90;;;999.90;;
14015;SDS011;7083;48.854;9.158;2023-03-14T11:24:28;1999.90;;;999.90;;
14015;SDS011;7083;48.854;9.158;2023-03-14T11:27:15;1999.90;;;999.90;;
14015;SDS011;7083;48.854;9.158;2023-03-14T11:29:45;1999.90;;;999.90;;
14015;SDS011;7083;48.854;9.158;2023-03-14T11:32:25;1999.90;;;999.90;;
14015;SDS011;7083;48.854;9.158;2023-03-14T11:35:03;1999.90;;;999.90;;
14015;SDS011;7083;48.854;9.158;2023-03-14T11:37:35;1999.90;;;999.90;;
14015;SDS011;7083;48.854;9.158;2023-03-14T11:40:10;1999.90;;;999.90;;
14015;SDS011;7083;48.854;9.158;2023-03-14T11:42:40;1999.90;;;999.90;;
14015;SDS011;7083;48.854;9.158;2023-03-14T11:45:12;1999.90;;;999.90;;
14015;SDS011;7083;48.854;9.158;2023-03-14T11:47:45;1999.90;;;999.90;;
14015;SDS011;7083;48.854;9.158;2023-03-14T11:50:20;1999.90;;;999.90;;
14015;SDS011;7083;48.854;9.158;2023-03-14T11:52:51;1999.90;;;999.90;;
14015;SDS011;7083;48.854;9.158;2023-03-14T11:55:22;1999.90;;;999.90;;
14015;SDS011;7083;48.854;9.158;2023-03-14T11:57:55;1999.90;;;999.90;;
14015;SDS011;7083;48.854;9.158;2023-03-14T12:00:25;1999.90;;;999.90;;
14015;SDS011;7083;48.854;9.158;2023-03-14T12:02:55;1999.90;;;999.90;;
14015;SDS011;7083;48.854;9.158;2023-03-14T12:08:26;1999.90;;;999.90;;
14015;SDS011;7083;48.854;9.158;2023-03-14T12:11:10;1999.90;;;999.90;;
14015;SDS011;7083;48.854;9.158;2023-03-14T12:13:41;1999.90;;;999.90;;
14015;SDS011;7083;48.854;9.158;2023-03-14T12:16:22;1999.90;;;999.90;;
14015;SDS011;7083;48.854;9.158;2023-03-14T12:21:51;1999.90;;;999.90;;
14015;SDS011;7083;48.854;9.158;2023-03-14T12:24:21;1999.90;;;999.90;;
14015;SDS011;7083;48.854;9.158;2023-03-14T12:26:52;1999.90;;;999.90;;
14015;SDS011;7083;48.854;9.158;2023-03-14T12:29:22;1999.90;;;999.90;;
14015;SDS011;7083;48.854;9.158;2023-03-14T12:31:50;1999.90;;;999.90;;
14015;SDS011;7083;48.854;9.158;2023-03-14T12:34:34;1999.90;;;999.90;;
14015;SDS011;7083;48.854;9.158;2023-03-14T12:37:10;1999.90;;;999.90;;
14015;SDS011;7083;48.854;9.158;2023-03-14T12:39:45;1999.90;;;999.90;;
14015;SDS011;7083;48.854;9.158;2023-03-14T12:42:23;1999.90;;;999.90;;
14015;SDS011;7083;48.854;9.158;2023-03-14T12:45:23;1999.90;;;999.90;;
14015;SDS011;7083;48.854;9.158;2023-03-14T12:48:02;1999.90;;;999.90;;
14015;SDS011;7083;48.854;9.158;2023-03-14T12:50:37;1999.90;;;999.90;;
14015;SDS011;7083;48.854;9.158;2023-03-14T12:56:24;1999.90;;;999.90;;
14015;SDS011;7083;48.854;9.158;2023-03-14T12:59:01;1999.90;;;999.90;;
14015;SDS011;7083;48.854;9.158;2023-03-14T13:01:53;1999.90;;;999.90;;
14015;SDS011;7083;48.854;9.158;2023-03-14T13:04:25;1999.90;;;999.90;;
14015;SDS011;7083;48.854;9.158;2023-03-14T13:06:56;1999.90;;;999.90;;
14015;SDS011;7083;48.854;9.158;2023-03-14T13:09:34;1999.90;;;999.90;;
14015;SDS011;7083;48.854;9.158;2023-03-14T13:12:16;1999.90;;;999.90;;
14015;SDS011;7083;48.854;9.158;2023-03-14T13:14:44;1999.90;;;999.90;;
14015;SDS011;7083;48.854;9.158;2023-03-14T13:17:13;1999.90;;;999.90;;
14015;SDS011;7083;48.854;9.158;2023-03-14T13:19:41;1999.90;;;999.90;;
14015;SDS011;7083;48.854;9.158;2023-03-14T13:22:15;1999.90;;;999.90;;
14015;SDS011;7083;48.854;9.158;2023-03-14T13:24:46;1999.90;;;999.90;;
14015;SDS011;7083;48.854;9.158;2023-03-14T13:27:15;1999.90;;;999.90;;
14015;SDS011;7083;48.854;9.158;2023-03-14T13:29:45;1999.90;;;999.90;;
14015;SDS011;7083;48.854;9.158;2023-03-14T13:32:16;1999.90;;;999.90;;
14015;SDS011;7083;48.854;9.158;2023-03-14T13:34:45;1999.90;;;999.90;;
14015;SDS011;7083;48.854;9.158;2023-03-14T13:37:16;1999.90;;;999.90;;
14015;SDS011;7083;48.854;9.158;2023-03-14T13:39:48;1999.90;;;999.90;;
14015;SDS011;7083;48.854;9.158;2023-03-14T13:42:15;1999.90;;;999.90;;
14015;SDS011;7083;48.854;9.158;2023-03-14T13:44:43;1999.90;;;999.90;;
14015;SDS011;7083;48.854;9.158;2023-03-14T13:47:11;1999.90;;;999.90;;
14015;SDS011;7083;48.854;9.158;2023-03-14T13:49:41;1999.90;;;999.90;;
14015;SDS011;7083;48.854;9.158;2023-03-14T13:52:23;1999.90;;;999.90;;
14015;SDS011;7083;48.854;9.158;2023-03-14T13:54:54;1999.90;;;999.90;;
14015;SDS011;7083;48.854;9.158;2023-03-14T13:57:22;1999.90;;;999.90;;
14015;SDS011;7083;48.854;9.158;2023-03-14T13:59:58;1999.90;;;999.90;;
14015;SDS011;7083;48.854;9.158;2023-03-14T14:02:29;1999.90;;;999.90;;
14015;SDS011;7083;48.854;9.158;2023-03-14T14:04:57;1999.90;;;999.90;;
14015;SDS011;7083;48.854;9.158;2023-03-14T14:07:26;1999.90;;;999.90;;
14015;SDS011;7083;48.854;9.158;2023-03-14T14:09:54;1999.90;;;999.90;;
14015;SDS011;7083;48.854;9.158;2023-03-14T14:12:22;1999.90;;;999.90;;
14015;SDS011;7083;48.854;9.158;2023-03-14T14:14:55;1999.90;;;999.90;;
14015;SDS011;7083;48.854;9.158;2023-03-14T14:17:26;1999.90;;;999.90;;
14015;SDS011;7083;48.854;9.158;2023-03-14T14:20:01;1999.90;;;999.90;;
14015;SDS011;7083;48.854;9.158;2023-03-14T14:22:31;1999.90;;;999.90;;